Terminal Aerodrome Forecast
Issued by NWS

Home | Current Version | Previous Version | Text Only | Print | Product List | Glossary On
Versions: 1 2 3 4 5 6 7 8 9 10 11 12 13 14 15
000
FTUS45 KCYS 311004 AAA
TAFAIA
TAF AMD
KAIA 311004Z 3110/0106 14009KT 3SM BR SCT011
     FM311200 13008KT P6SM OVC008
     FM311600 16015KT P6SM BKN012
     FM311900 17023G30KT P6SM SCT020
     FM010100 16018KT P6SM SCT250=

USA.gov is the U.S. government's official web portal to all federal, state and local government web resources and services.